createdAt,value
2022-07-30T00:01:35.653Z,8.48
2022-07-30T00:04:03.403Z,6.32
2022-07-30T00:06:30.485Z,6.30
2022-07-30T00:08:57.564Z,5.55
2022-07-30T00:11:27.891Z,4.78
2022-07-30T00:13:56.047Z,6.05
2022-07-30T00:16:23.175Z,5.82
2022-07-30T00:18:50.338Z,7.50
2022-07-30T00:21:20.192Z,8.75
2022-07-30T00:24:03.930Z,9.27
2022-07-30T00:26:30.914Z,4.15
2022-07-30T00:28:58.261Z,6.03
2022-07-30T00:31:25.213Z,10.07
2022-07-30T00:33:52.220Z,5.72
2022-07-30T00:36:19.246Z,6.95
2022-07-30T00:38:46.363Z,6.10
2022-07-30T00:41:15.644Z,6.30
2022-07-30T00:43:43.879Z,6.93
2022-07-30T00:46:10.953Z,8.82
2022-07-30T00:48:38.154Z,8.90
2022-07-30T00:51:05.238Z,8.85
2022-07-30T00:53:32.363Z,9.95
2022-07-30T00:55:59.525Z,6.72
2022-07-30T00:58:26.625Z,5.47
2022-07-30T01:00:53.821Z,5.80
2022-07-30T01:03:21.005Z,6.57
2022-07-30T01:05:48.127Z,7.95
2022-07-30T01:08:15.052Z,6.22
2022-07-30T01:10:42.168Z,8.15
2022-07-30T01:13:10.084Z,4.13
2022-07-30T01:15:38.702Z,5.00
2022-07-30T01:18:08.129Z,9.05
2022-07-30T01:20:52.065Z,7.65
2022-07-30T01:23:31.969Z,6.10
2022-07-30T01:26:08.745Z,6.43
2022-07-30T01:29:02.854Z,6.20
2022-07-30T01:31:30.963Z,8.43
2022-07-30T01:34:00.915Z,8.20
2022-07-30T01:36:29.443Z,5.10
2022-07-30T01:38:58.183Z,6.90
2022-07-30T01:41:25.740Z,4.60
2022-07-30T01:43:53.401Z,6.18
2022-07-30T01:46:23.742Z,6.03
2022-07-30T01:48:51.630Z,8.27
2022-07-30T01:51:19.929Z,8.82
2022-07-30T01:53:51.486Z,7.47
2022-07-30T01:56:24.569Z,6.55
2022-07-30T01:58:54.220Z,6.20
2022-07-30T02:01:25.005Z,3.65
2022-07-30T02:03:59.568Z,8.70
2022-07-30T02:06:33.242Z,8.82
2022-07-30T02:09:10.625Z,5.00
2022-07-30T02:12:05.825Z,4.78
2022-07-30T02:14:49.375Z,7.32
2022-07-30T02:17:30.024Z,5.43
2022-07-30T02:19:59.306Z,5.82
2022-07-30T02:22:32.423Z,8.27
2022-07-30T02:25:01.660Z,7.35
2022-07-30T02:27:33.594Z,7.50
2022-07-30T02:30:03.657Z,5.47
2022-07-30T02:32:35.967Z,7.07
2022-07-30T02:35:10.459Z,9.25
2022-07-30T02:37:43.886Z,6.45
2022-07-30T02:40:16.882Z,4.70
2022-07-30T02:42:46.923Z,5.68
2022-07-30T02:47:56.208Z,10.90
2022-07-30T02:50:24.534Z,6.25
2022-07-30T02:52:53.411Z,6.45
2022-07-30T02:55:22.055Z,6.80
2022-07-30T02:57:52.568Z,7.00
2022-07-30T03:00:21.962Z,7.25
2022-07-30T03:02:51.872Z,5.40
2022-07-30T03:05:24.700Z,6.78
2022-07-30T03:07:59.734Z,8.13
2022-07-30T03:10:27.868Z,7.07
2022-07-30T03:12:56.206Z,7.88
2022-07-30T03:15:23.299Z,7.28
2022-07-30T03:17:53.591Z,11.10
2022-07-30T03:20:28.181Z,5.25
2022-07-30T03:22:56.690Z,12.65
2022-07-30T03:25:26.250Z,8.15
2022-07-30T03:27:56.589Z,6.30
2022-07-30T03:30:27.862Z,6.10
2022-07-30T03:32:56.023Z,4.82
2022-07-30T03:35:27.119Z,7.68
2022-07-30T03:38:00.033Z,5.28
2022-07-30T03:40:28.618Z,5.20
2022-07-30T03:42:55.997Z,8.20
2022-07-30T03:45:25.198Z,8.27
2022-07-30T03:47:57.405Z,7.05
2022-07-30T03:50:24.746Z,7.55
2022-07-30T03:52:52.264Z,7.32
2022-07-30T03:55:19.231Z,5.07
2022-07-30T03:57:46.213Z,6.35
2022-07-30T04:00:14.925Z,8.20
2022-07-30T04:02:47.632Z,8.38
2022-07-30T04:05:41.164Z,7.55
2022-07-30T04:08:08.824Z,10.45
2022-07-30T04:10:35.921Z,8.68
2022-07-30T04:13:35.244Z,14.95
2022-07-30T04:16:39.641Z,11.38
2022-07-30T04:19:08.938Z,11.40
2022-07-30T04:21:37.686Z,10.18
2022-07-30T04:24:06.628Z,11.73
2022-07-30T04:26:37.179Z,10.73
2022-07-30T04:29:07.381Z,12.65
2022-07-30T04:31:40.712Z,11.07
2022-07-30T04:34:31.351Z,12.60
2022-07-30T04:36:58.498Z,15.20
2022-07-30T04:39:25.568Z,16.10
2022-07-30T04:41:52.707Z,16.70
2022-07-30T04:44:30.826Z,13.57
2022-07-30T04:47:35.851Z,17.80
2022-07-30T04:50:41.928Z,20.63
2022-07-30T04:53:11.991Z,16.17
2022-07-30T04:55:46.847Z,15.75
2022-07-30T04:58:16.243Z,13.68
2022-07-30T05:00:44.478Z,16.80
2022-07-30T05:03:16.356Z,17.38
2022-07-30T05:05:54.066Z,17.63
2022-07-30T05:08:28.239Z,17.98
2022-07-30T05:10:58.497Z,20.42
2022-07-30T05:13:27.515Z,19.08
2022-07-30T05:16:01.383Z,17.48
2022-07-30T05:18:28.557Z,15.93
2022-07-30T05:20:55.500Z,15.95
2022-07-30T05:23:26.902Z,16.27
2022-07-30T05:26:04.583Z,16.70
2022-07-30T05:28:36.863Z,17.95
2022-07-30T05:31:08.659Z,17.85
2022-07-30T05:33:42.594Z,19.90
2022-07-30T05:36:15.615Z,16.23
2022-07-30T05:38:42.602Z,13.02
2022-07-30T05:41:33.020Z,18.67
2022-07-30T05:44:01.180Z,19.88
2022-07-30T05:46:28.546Z,18.10
2022-07-30T05:48:55.649Z,18.00
2022-07-30T05:51:22.754Z,16.08
2022-07-30T05:53:49.851Z,13.80
2022-07-30T05:56:36.145Z,15.32
2022-07-30T05:59:10.427Z,14.48
2022-07-30T06:04:46.332Z,12.75
2022-07-30T06:07:13.450Z,10.15
2022-07-30T06:09:40.701Z,11.50
2022-07-30T06:12:08.605Z,11.55
2022-07-30T06:14:35.692Z,11.55
2022-07-30T06:17:04.097Z,10.70
2022-07-30T06:19:50.768Z,9.60
2022-07-30T06:22:20.702Z,9.93
2022-07-30T06:24:50.563Z,10.40
2022-07-30T06:27:21.197Z,10.85
2022-07-30T06:29:48.103Z,6.93
2022-07-30T06:32:17.343Z,6.75
2022-07-30T06:34:47.694Z,5.70
2022-07-30T06:37:14.654Z,10.68
2022-07-30T06:39:56.499Z,7.30
2022-07-30T06:42:34.034Z,7.35
2022-07-30T06:45:31.003Z,5.90
2022-07-30T06:48:16.917Z,8.52
2022-07-30T06:50:44.146Z,7.60
2022-07-30T06:53:11.140Z,6.38
2022-07-30T06:56:07.402Z,5.40
2022-07-30T06:58:43.635Z,4.40
2022-07-30T07:01:33.820Z,7.18
2022-07-30T07:04:01.018Z,7.00
2022-07-30T07:06:28.107Z,5.80
2022-07-30T07:08:55.129Z,7.20
2022-07-30T07:11:30.411Z,6.82
2022-07-30T07:14:04.292Z,6.72
2022-07-30T07:16:35.119Z,7.72
2022-07-30T07:20:00.238Z,5.97
2022-07-30T07:22:07.671Z,6.68
2022-07-30T07:24:34.614Z,5.53
2022-07-30T07:27:15.398Z,5.95
2022-07-30T07:30:04.619Z,8.05
2022-07-30T07:32:32.152Z,5.43
2022-07-30T07:34:59.070Z,4.60
2022-07-30T07:37:26.711Z,4.68
2022-07-30T07:39:53.671Z,6.07
2022-07-30T07:42:20.732Z,6.75
2022-07-30T07:44:48.725Z,6.03
2022-07-30T07:47:16.890Z,4.93
2022-07-30T07:49:56.116Z,6.32
2022-07-30T07:52:23.604Z,5.07
2022-07-30T07:54:50.571Z,6.13
2022-07-30T07:57:18.147Z,8.55
2022-07-30T07:59:47.388Z,5.30
2022-07-30T08:02:21.585Z,7.00
2022-07-30T08:05:06.865Z,6.75
2022-07-30T08:07:52.951Z,5.07
2022-07-30T08:10:43.090Z,4.60
2022-07-30T08:13:48.154Z,5.65
2022-07-30T08:16:47.924Z,6.60
2022-07-30T08:19:32.378Z,7.07
2022-07-30T08:22:11.801Z,9.35
2022-07-30T08:24:40.080Z,6.32
2022-07-30T08:27:07.115Z,5.90
2022-07-30T08:29:34.225Z,6.65
2022-07-30T08:32:02.301Z,9.30
2022-07-30T08:34:29.606Z,8.00
2022-07-30T08:36:57.759Z,5.70
2022-07-30T08:39:25.451Z,6.32
2022-07-30T08:41:52.400Z,7.13
2022-07-30T08:44:21.786Z,6.65
2022-07-30T08:46:56.184Z,4.65
2022-07-30T08:49:29.059Z,7.03
2022-07-30T08:51:56.828Z,6.38
2022-07-30T08:54:40.717Z,8.57
2022-07-30T08:57:08.150Z,7.18
2022-07-30T08:59:59.010Z,5.03
2022-07-30T09:02:29.751Z,6.70
2022-07-30T09:05:02.776Z,5.88
2022-07-30T09:07:31.812Z,6.43
2022-07-30T09:09:59.114Z,6.50
2022-07-30T09:12:42.355Z,9.48
2022-07-30T09:15:14.199Z,6.45
2022-07-30T09:17:53.409Z,7.63
2022-07-30T09:20:24.258Z,9.02
2022-07-30T09:22:53.819Z,8.55
2022-07-30T09:25:48.931Z,6.15
2022-07-30T09:28:34.979Z,5.22
2022-07-30T09:31:14.073Z,6.28
2022-07-30T09:34:29.103Z,6.70
2022-07-30T09:37:12.654Z,8.63
2022-07-30T09:40:15.754Z,6.63
2022-07-30T09:43:11.380Z,8.00
2022-07-30T09:45:57.245Z,7.18
2022-07-30T09:48:27.293Z,6.60
2022-07-30T09:50:55.461Z,8.95
2022-07-30T09:53:25.234Z,8.38
2022-07-30T09:55:52.488Z,6.63
2022-07-30T09:58:26.517Z,7.22
2022-07-30T10:00:59.609Z,7.65
2022-07-30T10:03:46.670Z,7.65
2022-07-30T10:06:38.247Z,9.02
2022-07-30T10:09:32.240Z,8.45
2022-07-30T10:12:05.163Z,10.95
2022-07-30T10:14:42.514Z,8.85
2022-07-30T10:17:12.094Z,4.43
2022-07-30T10:19:41.886Z,8.10
2022-07-30T10:22:27.928Z,8.52
2022-07-30T10:25:23.168Z,5.38
2022-07-30T10:28:00.042Z,6.15
2022-07-30T10:30:32.141Z,5.03
2022-07-30T10:33:01.368Z,5.07
2022-07-30T10:35:34.379Z,5.03
2022-07-30T10:38:13.938Z,5.43
2022-07-30T10:40:54.181Z,15.20
2022-07-30T10:46:42.473Z,9.43
2022-07-30T10:49:18.864Z,4.82
2022-07-30T10:51:57.434Z,5.38
2022-07-30T10:54:33.840Z,9.52
2022-07-30T10:57:09.595Z,7.15
2022-07-30T10:59:55.699Z,8.13
2022-07-30T11:02:25.340Z,8.90
2022-07-30T11:05:44.915Z,7.85
2022-07-30T11:08:31.859Z,9.95
2022-07-30T11:10:59.553Z,5.13
2022-07-30T11:13:54.120Z,6.75
2022-07-30T11:16:23.299Z,9.60
2022-07-30T11:19:56.067Z,10.70
2022-07-30T11:22:27.291Z,8.20
2022-07-30T11:24:54.730Z,5.82
2022-07-30T11:27:46.488Z,6.55
2022-07-30T11:30:18.885Z,6.97
2022-07-30T11:32:50.250Z,7.75
2022-07-30T11:35:23.050Z,6.57
2022-07-30T11:38:06.928Z,9.10
2022-07-30T11:40:46.980Z,11.93
2022-07-30T11:43:35.752Z,6.13
2022-07-30T11:46:06.614Z,6.57
2022-07-30T11:48:34.268Z,5.20
2022-07-30T11:51:03.937Z,6.57
2022-07-30T11:53:31.748Z,9.10
2022-07-30T11:56:01.654Z,9.57
2022-07-30T11:58:34.675Z,5.30
2022-07-30T12:01:09.345Z,8.80
2022-07-30T12:03:41.056Z,7.43
2022-07-30T12:06:13.703Z,10.38
2022-07-30T12:08:42.288Z,8.68
2022-07-30T12:11:10.555Z,8.00
2022-07-30T12:13:44.577Z,7.68
2022-07-30T12:16:18.411Z,6.93
2022-07-30T12:18:46.717Z,6.97
2022-07-30T12:21:17.560Z,9.43
2022-07-30T12:23:58.983Z,5.22
2022-07-30T12:26:31.881Z,9.45
2022-07-30T12:29:01.351Z,7.45
2022-07-30T12:31:29.220Z,7.47
2022-07-30T12:34:00.405Z,6.90
2022-07-30T12:36:32.590Z,6.03
2022-07-30T12:39:01.565Z,5.00
2022-07-30T12:41:45.647Z,5.82
2022-07-30T12:44:39.554Z,5.95
2022-07-30T12:47:19.216Z,8.02
2022-07-30T12:49:49.594Z,5.10
2022-07-30T12:52:28.226Z,4.80
2022-07-30T12:55:02.297Z,8.25
2022-07-30T12:57:58.363Z,10.38
2022-07-30T13:00:31.211Z,7.88
2022-07-30T13:02:58.979Z,5.38
2022-07-30T13:05:48.886Z,7.50
2022-07-30T13:08:16.149Z,7.28
2022-07-30T13:11:00.432Z,9.95
2022-07-30T13:13:28.822Z,5.20
2022-07-30T13:16:05.103Z,7.22
2022-07-30T13:18:33.671Z,5.15
2022-07-30T13:21:01.992Z,11.70
2022-07-30T13:23:29.944Z,9.50
2022-07-30T13:25:57.601Z,8.85
2022-07-30T13:28:25.451Z,6.43
2022-07-30T13:30:52.579Z,5.68
2022-07-30T13:33:19.739Z,9.63
2022-07-30T13:35:46.569Z,8.13
2022-07-30T13:38:13.736Z,4.35
2022-07-30T13:40:41.358Z,7.03
2022-07-30T13:43:08.317Z,5.88
2022-07-30T13:45:35.920Z,6.30
2022-07-30T13:48:04.052Z,13.55
2022-07-30T13:50:30.957Z,9.40
2022-07-30T13:53:01.975Z,5.35
2022-07-30T13:55:29.828Z,6.50
2022-07-30T13:57:56.812Z,5.82
2022-07-30T14:00:24.535Z,7.15
2022-07-30T14:02:51.744Z,7.25
2022-07-30T14:05:18.683Z,5.70
2022-07-30T14:07:45.619Z,7.60
2022-07-30T14:10:12.563Z,7.63
2022-07-30T14:12:40.059Z,8.18
2022-07-30T14:15:09.359Z,8.07
2022-07-30T14:17:36.504Z,5.18
2022-07-30T14:20:04.405Z,6.40
2022-07-30T14:22:31.308Z,4.70
2022-07-30T14:25:00.243Z,8.50
2022-07-30T14:27:27.194Z,4.20
2022-07-30T14:29:54.161Z,4.43
2022-07-30T14:32:21.047Z,4.40
2022-07-30T14:34:50.593Z,7.45
2022-07-30T14:37:17.568Z,7.05
2022-07-30T14:39:44.459Z,5.70
2022-07-30T14:42:11.538Z,5.47
2022-07-30T14:44:38.447Z,4.68
2022-07-30T14:47:05.698Z,6.63
2022-07-30T14:49:32.896Z,5.25
2022-07-30T14:52:00.961Z,6.68
2022-07-30T14:54:31.471Z,7.28
2022-07-30T14:56:58.858Z,5.55
2022-07-30T14:59:27.453Z,8.27
2022-07-30T15:01:55.352Z,5.03
2022-07-30T15:04:23.106Z,3.78
2022-07-30T15:06:50.020Z,6.57
2022-07-30T15:09:16.935Z,3.08
2022-07-30T15:12:08.519Z,5.63
2022-07-30T15:14:30.762Z,6.93
2022-07-30T15:17:03.486Z,5.32
2022-07-30T15:19:33.043Z,6.10
2022-07-30T15:22:02.485Z,8.10
2022-07-30T15:24:31.337Z,6.28
2022-07-30T15:26:58.632Z,5.05
2022-07-30T15:29:28.074Z,8.18
2022-07-30T15:31:55.027Z,5.05
2022-07-30T15:34:25.436Z,5.10
2022-07-30T15:36:53.616Z,6.13
2022-07-30T15:39:20.552Z,6.30
2022-07-30T15:41:47.528Z,4.50
2022-07-30T15:44:19.536Z,10.15
2022-07-30T15:46:47.028Z,5.25
2022-07-30T15:49:14.069Z,9.27
2022-07-30T15:51:47.529Z,8.43
2022-07-30T15:54:22.155Z,6.15
2022-07-30T15:56:51.605Z,5.47
2022-07-30T15:59:18.712Z,5.15
2022-07-30T16:01:45.667Z,4.88
2022-07-30T16:04:18.902Z,5.55
2022-07-30T16:06:48.494Z,7.05
2022-07-30T16:09:16.337Z,6.18
2022-07-30T16:11:43.413Z,7.13
2022-07-30T16:14:10.761Z,6.35
2022-07-30T16:16:37.743Z,4.88
2022-07-30T16:19:04.596Z,5.10
2022-07-30T16:21:31.511Z,11.15
2022-07-30T16:23:58.565Z,7.05
2022-07-30T16:26:25.473Z,4.90
2022-07-30T16:28:52.519Z,5.20
2022-07-30T16:31:19.457Z,6.20
2022-07-30T16:33:47.281Z,7.35
2022-07-30T16:36:14.395Z,6.78
2022-07-30T16:38:41.635Z,5.60
2022-07-30T16:41:13.396Z,5.00
2022-07-30T16:43:40.810Z,6.35
2022-07-30T16:46:07.835Z,8.48
2022-07-30T16:48:34.790Z,5.00
2022-07-30T16:51:01.709Z,5.10
2022-07-30T16:53:28.905Z,5.95
2022-07-30T16:55:57.044Z,4.18
2022-07-30T16:58:28.366Z,6.20
2022-07-30T17:00:58.325Z,6.82
2022-07-30T17:03:25.675Z,5.32
2022-07-30T17:05:53.077Z,9.23
2022-07-30T17:08:24.803Z,6.30
2022-07-30T17:10:52.797Z,4.88
2022-07-30T17:13:20.902Z,4.72
2022-07-30T17:15:48.545Z,5.38
2022-07-30T17:18:16.008Z,5.90
2022-07-30T17:20:43.678Z,5.45
2022-07-30T17:23:10.771Z,3.97
2022-07-30T17:25:37.762Z,4.80
2022-07-30T17:28:04.815Z,5.53
2022-07-30T17:30:31.710Z,3.85
2022-07-30T17:32:58.773Z,4.68
2022-07-30T17:35:26.339Z,5.05
2022-07-30T17:37:53.701Z,4.75
2022-07-30T17:40:30.742Z,7.07
2022-07-30T17:43:07.643Z,7.07
2022-07-30T17:45:36.337Z,4.25
2022-07-30T17:48:04.923Z,4.80
2022-07-30T17:50:33.061Z,4.75
2022-07-30T17:53:03.468Z,7.20
2022-07-30T17:55:31.369Z,5.07
2022-07-30T17:57:58.260Z,6.82
2022-07-30T18:00:25.207Z,5.53
2022-07-30T18:02:52.113Z,6.65
2022-07-30T18:05:19.215Z,3.85
2022-07-30T18:07:46.130Z,4.40
2022-07-30T18:10:13.384Z,5.80
2022-07-30T18:12:48.341Z,4.50
2022-07-30T18:15:16.703Z,6.65
2022-07-30T18:17:43.640Z,6.45
2022-07-30T18:20:11.177Z,4.45
2022-07-30T18:22:38.252Z,3.80
2022-07-30T18:25:18.796Z,4.97
2022-07-30T18:27:46.907Z,7.53
2022-07-30T18:30:14.079Z,5.43
2022-07-30T18:32:41.096Z,6.18
2022-07-30T18:35:12.162Z,8.23
2022-07-30T18:37:42.117Z,4.72
2022-07-30T18:40:10.396Z,9.77
2022-07-30T18:42:37.393Z,5.97
2022-07-30T18:45:04.816Z,5.13
2022-07-30T18:47:31.894Z,6.28
2022-07-30T18:49:58.977Z,5.75
2022-07-30T18:52:26.612Z,4.72
2022-07-30T18:54:53.637Z,5.00
2022-07-30T18:57:20.793Z,7.28
2022-07-30T18:59:47.650Z,5.30
2022-07-30T19:02:14.585Z,4.53
2022-07-30T19:04:41.564Z,5.07
2022-07-30T19:07:08.685Z,7.72
2022-07-30T19:09:35.961Z,5.68
2022-07-30T19:12:04.078Z,5.55
2022-07-30T19:14:31.233Z,4.90
2022-07-30T19:16:59.218Z,3.97
2022-07-30T19:19:27.372Z,4.47
2022-07-30T19:21:54.452Z,5.20
2022-07-30T19:24:21.743Z,6.47
2022-07-30T19:26:49.023Z,6.40
2022-07-30T19:29:16.213Z,9.70
2022-07-30T19:31:43.161Z,7.63
2022-07-30T19:34:11.077Z,9.13
2022-07-30T19:36:39.631Z,10.15
2022-07-30T19:39:06.995Z,7.00
2022-07-30T19:41:40.692Z,8.95
2022-07-30T19:46:41.309Z,11.25
2022-07-30T19:49:12.077Z,9.10
2022-07-30T19:52:10.229Z,11.60
2022-07-30T19:54:25.924Z,10.65
2022-07-30T19:56:52.754Z,10.00
2022-07-30T20:02:08.427Z,8.50
2022-07-30T20:04:36.983Z,8.38
2022-07-30T20:07:04.360Z,8.02
2022-07-30T20:09:31.350Z,10.07
2022-07-30T20:11:59.946Z,5.68
2022-07-30T20:14:30.058Z,10.18
2022-07-30T20:16:56.980Z,7.43
2022-07-30T20:19:36.003Z,13.07
2022-07-30T20:22:03.506Z,11.57
2022-07-30T20:24:30.422Z,14.50
2022-07-30T20:26:58.143Z,13.18
2022-07-30T20:29:25.039Z,12.15
2022-07-30T20:31:52.059Z,10.65
2022-07-30T20:34:23.795Z,9.77
2022-07-30T20:36:53.921Z,10.65
2022-07-30T20:39:24.859Z,12.07
2022-07-30T20:42:07.557Z,8.60
2022-07-30T20:44:40.487Z,12.65
2022-07-30T20:47:11.284Z,13.50
2022-07-30T20:49:39.923Z,9.60
2022-07-30T20:52:09.799Z,12.68
2022-07-30T20:54:37.659Z,12.35
2022-07-30T20:57:15.589Z,12.65
2022-07-30T20:59:43.387Z,16.35
2022-07-30T21:02:15.239Z,15.40
2022-07-30T21:04:42.386Z,20.25
2022-07-30T21:07:13.512Z,18.58
2022-07-30T21:09:49.961Z,21.73
2022-07-30T21:12:19.640Z,17.88
2022-07-30T21:14:59.940Z,21.70
2022-07-30T21:17:26.871Z,18.48
2022-07-30T21:19:55.249Z,20.67
2022-07-30T21:22:22.600Z,22.98
2022-07-30T21:24:50.831Z,20.60
2022-07-30T21:27:19.075Z,24.27
2022-07-30T21:29:46.385Z,20.00
2022-07-30T21:32:14.685Z,22.85
2022-07-30T21:34:46.367Z,28.05
2022-07-30T21:37:15.431Z,29.95
2022-07-30T21:39:42.849Z,21.80
2022-07-30T21:42:09.786Z,18.30
2022-07-30T21:44:37.688Z,27.30
2022-07-30T21:47:08.355Z,20.17
2022-07-30T21:49:37.654Z,25.33
2022-07-30T21:52:05.243Z,21.00
2022-07-30T21:54:37.490Z,22.70
2022-07-30T21:57:12.714Z,21.98
2022-07-30T21:59:40.720Z,19.77
2022-07-30T22:02:18.765Z,22.70
2022-07-30T22:04:47.582Z,20.52
2022-07-30T22:07:17.427Z,18.40
2022-07-30T22:09:44.375Z,18.70
2022-07-30T22:12:12.488Z,20.27
2022-07-30T22:14:39.995Z,24.55
2022-07-30T22:17:22.350Z,22.48
2022-07-30T22:19:51.759Z,24.90
2022-07-30T22:22:26.261Z,16.67
2022-07-30T22:24:58.129Z,22.27
2022-07-30T22:27:27.198Z,24.60
2022-07-30T22:29:55.712Z,28.75
2022-07-30T22:32:24.380Z,18.83
2022-07-30T22:34:51.711Z,22.20
2022-07-30T22:37:21.532Z,22.20
2022-07-30T22:39:51.625Z,24.50
2022-07-30T22:42:20.075Z,23.05
2022-07-30T22:44:47.538Z,26.00
2022-07-30T22:47:21.118Z,25.38
2022-07-30T22:50:03.844Z,25.13
2022-07-30T22:52:37.999Z,24.05
2022-07-30T22:55:10.505Z,23.17
2022-07-30T22:57:40.134Z,21.25
2022-07-30T23:00:11.396Z,23.83
2022-07-30T23:02:40.297Z,23.73
2022-07-30T23:05:08.709Z,16.67
2022-07-30T23:07:39.502Z,19.90
2022-07-30T23:10:17.028Z,19.60
2022-07-30T23:12:15.503Z,10.40
2022-07-30T23:12:46.858Z,16.25
2022-07-30T23:15:13.956Z,17.73
2022-07-30T23:17:40.913Z,16.15
2022-07-30T23:20:10.863Z,22.42
2022-07-30T23:22:38.139Z,18.42
2022-07-30T23:25:06.385Z,16.42
2022-07-30T23:27:33.852Z,17.85
2022-07-30T23:30:00.792Z,20.45
2022-07-30T23:32:28.380Z,18.80
2022-07-30T23:34:55.286Z,21.80
2022-07-30T23:37:22.230Z,13.75
2022-07-30T23:39:49.209Z,18.48
2022-07-30T23:42:16.146Z,18.15
2022-07-30T23:44:42.984Z,13.98
2022-07-30T23:47:09.840Z,14.65
2022-07-30T23:49:36.710Z,12.88
2022-07-30T23:52:04.874Z,14.55
2022-07-30T23:54:32.350Z,15.43
2022-07-30T23:56:59.209Z,15.30
2022-07-30T23:59:40.761Z,15.65
